Time;durP1;ratioP1;P1;durP2;ratioP2;P2;SDS_P1;SDS_P2;PMS_P1;PMS_P2;Temp;Humidity;BMP_temperature;BMP_pressure;BME280_temperature;BME280_humidity;BME280_pressure;Samples;Min_cycle;Max_cycle;Signal;HPM_P1;HPM_P2
2023/09/23 00:00:24;;;;;;;4.50;1.40;;;13.90;99.90;;;;;;5007260;28;20457;-86
2023/09/23 00:03:10;;;;;;;4.40;1.30;;;13.90;99.90;;;;;;5003989;28;20454;-86
2023/09/23 00:05:56;;;;;;;2.20;1.30;;;13.80;99.90;;;;;;5001716;28;20461;-87
2023/09/23 00:08:43;;;;;;;6.73;1.40;;;13.80;99.90;;;;;;4995246;28;20579;-86
2023/09/23 00:11:29;;;;;;;1.83;1.07;;;13.80;99.90;;;;;;4995804;28;20452;-86
2023/09/23 00:14:15;;;;;;;2.40;1.30;;;13.80;99.90;;;;;;4998469;28;20569;-86
2023/09/23 00:17:03;;;;;;;3.23;1.10;;;13.70;99.90;;;;;;4994823;28;20413;-86
2023/09/23 00:19:49;;;;;;;3.90;1.30;;;13.80;99.90;;;;;;5001087;28;20458;-86
2023/09/23 00:22:37;;;;;;;2.50;1.30;;;13.80;99.90;;;;;;4995677;28;20421;-87
2023/09/23 00:25:23;;;;;;;2.17;1.00;;;13.90;99.90;;;;;;4995801;28;20743;-86
2023/09/23 00:28:12;;;;;;;2.83;1.20;;;13.70;99.90;;;;;;4994784;28;20447;-86
2023/09/23 00:31:05;;;;;;;2.33;1.23;;;13.80;99.90;;;;;;4991669;28;20449;-86
2023/09/23 00:33:52;;;;;;;2.57;1.50;;;13.80;99.90;;;;;;4988436;28;20409;-86
2023/09/23 00:36:37;;;;;;;7.60;1.33;;;13.80;99.90;;;;;;4988205;28;20457;-86
2023/09/23 00:39:23;;;;;;;2.67;1.20;;;13.90;99.90;;;;;;4987692;28;20673;-87
2023/09/23 00:42:10;;;;;;;2.97;1.27;;;13.80;99.90;;;;;;4986764;28;20445;-87
2023/09/23 00:44:57;;;;;;;11.10;1.57;;;13.80;99.90;;;;;;4986489;28;20559;-87
2023/09/23 00:47:43;;;;;;;2.87;1.40;;;13.70;99.90;;;;;;4994071;28;20788;-86
2023/09/23 00:50:29;;;;;;;2.00;1.30;;;13.80;99.90;;;;;;4995567;28;20553;-86
2023/09/23 00:53:16;;;;;;;3.20;1.50;;;13.70;99.90;;;;;;4997633;28;20428;-86
2023/09/23 00:56:03;;;;;;;2.87;1.60;;;13.70;99.90;;;;;;4993383;28;20910;-86
2023/09/23 00:58:50;;;;;;;3.80;1.40;;;13.70;99.90;;;;;;4997994;28;20460;-87
2023/09/23 01:01:39;;;;;;;4.43;1.07;;;13.60;99.90;;;;;;4992133;28;20561;-85
2023/09/23 01:04:25;;;;;;;4.53;1.50;;;13.50;99.90;;;;;;4997275;28;20500;-87
2023/09/23 01:07:10;;;;;;;5.23;1.23;;;13.40;99.90;;;;;;4995470;28;20505;-86
2023/09/23 01:09:56;;;;;;;4.10;1.33;;;13.40;99.90;;;;;;5012613;22;20840;-75
2023/09/23 01:12:42;;;;;;;2.60;1.27;;;13.50;99.90;;;;;;5001858;28;20512;-78
2023/09/23 01:15:31;;;;;;;3.53;1.20;;;13.60;99.90;;;;;;4983630;28;20496;-75
2023/09/23 01:18:18;;;;;;;3.80;1.60;;;13.50;99.90;;;;;;4981348;28;20973;-78
2023/09/23 01:21:07;;;;;;;5.53;1.67;;;13.60;99.90;;;;;;4991627;28;20480;-78
2023/09/23 01:23:54;;;;;;;3.07;1.37;;;13.70;99.90;;;;;;4984819;28;20474;-78
2023/09/23 01:26:40;;;;;;;10.73;1.33;;;13.60;99.90;;;;;;4987175;28;20512;-76
2023/09/23 01:29:26;;;;;;;2.87;1.40;;;13.70;99.90;;;;;;4983628;28;20501;-76
2023/09/23 01:32:22;;;;;;;4.10;1.40;;;13.60;99.90;;;;;;4987623;28;21067;-76
2023/09/23 01:35:09;;;;;;;2.53;1.23;;;13.50;99.90;;;;;;4986991;28;20501;-77
2023/09/23 01:37:55;;;;;;;3.33;1.20;;;13.60;99.90;;;;;;4988008;28;20460;-75
2023/09/23 01:40:43;;;;;;;2.63;1.50;;;13.50;99.90;;;;;;4982463;28;20816;-77
2023/09/23 01:43:29;;;;;;;2.10;1.40;;;13.50;99.90;;;;;;4983522;28;20475;-77
2023/09/23 01:46:14;;;;;;;4.80;1.40;;;13.50;99.90;;;;;;4980528;28;20493;-77
2023/09/23 01:49:03;;;;;;;4.93;1.70;;;13.60;99.90;;;;;;4978945;28;20483;-76
2023/09/23 01:51:48;;;;;;;2.20;1.03;;;13.70;99.90;;;;;;4985035;28;20533;-77
2023/09/23 01:54:34;;;;;;;2.63;1.27;;;13.70;99.90;;;;;;4982546;28;20484;-78
2023/09/23 01:57:21;;;;;;;2.37;1.30;;;13.80;99.90;;;;;;4981681;28;20421;-78
2023/09/23 02:00:17;;;;;;;3.83;1.43;;;13.70;99.90;;;;;;4975443;28;20892;-77
2023/09/23 02:03:05;;;;;;;9.40;1.50;;;13.60;99.90;;;;;;4987003;28;20505;-77
2023/09/23 02:05:51;;;;;;;3.13;1.03;;;13.70;99.90;;;;;;4988539;28;20517;-77
2023/09/23 02:08:37;;;;;;;5.50;1.33;;;13.70;99.90;;;;;;4987432;28;20441;-77
2023/09/23 02:11:22;;;;;;;5.70;1.40;;;13.70;99.90;;;;;;4990189;28;20910;-77
2023/09/23 02:14:09;;;;;;;3.57;1.00;;;13.70;99.90;;;;;;4983238;28;20620;-77
2023/09/23 02:16:55;;;;;;;5.03;1.37;;;13.60;99.90;;;;;;4988637;28;20469;-77
2023/09/23 02:19:42;;;;;;;4.70;1.80;;;13.50;99.90;;;;;;4982020;28;20546;-77
2023/09/23 02:22:27;;;;;;;3.00;1.20;;;13.60;99.90;;;;;;4981660;28;20454;-77
2023/09/23 02:25:13;;;;;;;2.77;1.10;;;13.60;99.90;;;;;;4979241;28;20452;-77
2023/09/23 02:27:59;;;;;;;2.47;1.20;;;13.60;99.90;;;;;;4979744;28;20439;-77
2023/09/23 02:30:47;;;;;;;9.50;1.60;;;13.70;99.90;;;;;;4978148;28;20835;-77
2023/09/23 02:33:32;;;;;;;5.20;1.67;;;13.60;99.90;;;;;;4986315;28;20909;-76
2023/09/23 02:36:18;;;;;;;9.90;1.50;;;13.60;99.90;;;;;;4981992;28;20560;-76
2023/09/23 02:39:04;;;;;;;2.57;1.30;;;13.60;99.90;;;;;;4983489;28;20440;-77
2023/09/23 02:41:51;;;;;;;3.60;1.10;;;13.60;99.90;;;;;;4976030;28;23208;-77
2023/09/23 02:44:37;;;;;;;2.27;1.17;;;13.40;99.90;;;;;;4983324;28;20953;-77
2023/09/23 02:47:24;;;;;;;3.10;1.20;;;13.40;99.90;;;;;;4981682;28;20889;-77
2023/09/23 02:50:12;;;;;;;2.67;1.50;;;13.40;99.90;;;;;;4980681;28;20547;-77
2023/09/23 02:52:59;;;;;;;2.83;1.00;;;13.50;99.90;;;;;;4973243;28;20441;-77
2023/09/23 02:55:51;;;;;;;7.13;1.30;;;13.40;99.90;;;;;;4981133;28;20433;-77
2023/09/23 02:58:38;;;;;;;5.40;1.57;;;13.30;99.90;;;;;;4986162;28;20449;-77
2023/09/23 03:01:25;;;;;;;2.47;1.43;;;13.30;99.90;;;;;;4983763;28;20443;-77
2023/09/23 03:04:17;;;;;;;5.10;1.20;;;13.30;99.90;;;;;;4982517;28;20513;-77
2023/09/23 03:07:04;;;;;;;3.80;1.60;;;13.30;99.90;;;;;;4985265;28;20533;-77
2023/09/23 03:09:55;;;;;;;4.10;1.43;;;13.40;99.90;;;;;;4980971;28;20484;-77
2023/09/23 03:12:43;;;;;;;11.90;1.60;;;13.30;99.90;;;;;;4985660;28;20554;-76
2023/09/23 03:15:34;;;;;;;2.03;0.90;;;13.20;99.90;;;;;;4984689;28;20448;-77
2023/09/23 03:18:27;;;;;;;4.23;1.10;;;13.30;99.90;;;;;;4986452;28;20579;-76
2023/09/23 03:21:15;;;;;;;2.13;1.03;;;13.20;99.90;;;;;;4979414;28;20446;-76
2023/09/23 03:24:00;;;;;;;2.07;0.90;;;13.10;99.90;;;;;;4980880;28;20506;-77
2023/09/23 03:26:46;;;;;;;3.50;1.57;;;13.10;99.90;;;;;;4986847;28;20829;-77
2023/09/23 03:29:32;;;;;;;3.50;1.37;;;13.10;99.90;;;;;;4978176;28;20453;-77
2023/09/23 03:32:18;;;;;;;2.80;1.00;;;12.90;99.90;;;;;;4985557;28;20415;-76
2023/09/23 03:35:04;;;;;;;3.07;1.30;;;12.90;99.90;;;;;;4986614;28;20470;-77
2023/09/23 03:37:51;;;;;;;2.00;1.03;;;12.80;99.90;;;;;;4982501;28;20428;-77
2023/09/23 03:40:38;;;;;;;4.90;1.33;;;12.80;99.90;;;;;;4982372;28;20428;-76
2023/09/23 03:43:24;;;;;;;3.17;1.20;;;12.60;99.90;;;;;;4979624;28;20452;-77
2023/09/23 03:46:14;;;;;;;3.73;1.17;;;12.40;99.90;;;;;;4984960;28;20911;-76
2023/09/23 03:49:00;;;;;;;6.47;1.40;;;12.30;99.90;;;;;;4979061;28;20573;-77
2023/09/23 03:51:46;;;;;;;4.80;1.30;;;12.20;99.90;;;;;;4980598;28;20432;-77
2023/09/23 03:54:33;;;;;;;1.97;1.20;;;12.20;99.90;;;;;;4983631;28;20464;-76
2023/09/23 03:57:19;;;;;;;5.80;1.50;;;12.10;99.90;;;;;;4985711;28;20424;-77
2023/09/23 04:00:14;;;;;;;6.53;1.27;;;12.00;99.90;;;;;;4984114;28;20983;-76
2023/09/23 04:02:59;;;;;;;5.03;1.60;;;12.00;99.90;;;;;;4987866;28;20413;-77
2023/09/23 04:05:45;;;;;;;6.90;1.10;;;11.90;99.90;;;;;;4982351;28;20427;-77
2023/09/23 04:08:31;;;;;;;4.03;1.53;;;11.80;99.90;;;;;;4978408;28;21045;-76
2023/09/23 04:11:18;;;;;;;2.83;1.27;;;11.80;99.90;;;;;;4986331;28;20433;-76
2023/09/23 04:14:04;;;;;;;8.97;1.50;;;11.70;99.90;;;;;;4979712;28;20949;-76
2023/09/23 04:16:49;;;;;;;3.50;1.60;;;11.70;99.90;;;;;;4981395;28;20579;-76
2023/09/23 04:19:35;;;;;;;3.20;1.20;;;11.60;99.90;;;;;;4986278;28;20863;-77
2023/09/23 04:22:21;;;;;;;3.73;1.20;;;11.40;99.90;;;;;;4985173;28;20811;-77
2023/09/23 04:25:08;;;;;;;3.80;1.47;;;11.50;99.90;;;;;;4987398;28;20805;-77
2023/09/23 04:27:55;;;;;;;7.63;1.83;;;11.50;99.90;;;;;;4985573;28;20453;-77
2023/09/23 04:30:41;;;;;;;4.60;1.20;;;11.60;99.90;;;;;;4983465;28;20454;-76
2023/09/23 04:33:27;;;;;;;4.40;1.67;;;11.60;99.90;;;;;;4981823;28;20457;-77
2023/09/23 04:36:13;;;;;;;3.00;1.40;;;11.60;99.90;;;;;;4980255;28;20439;-77
2023/09/23 04:38:59;;;;;;;5.20;1.37;;;11.70;99.90;;;;;;4984358;28;20449;-77
2023/09/23 04:41:44;;;;;;;2.93;1.40;;;11.60;99.90;;;;;;4982114;28;20428;-77
2023/09/23 04:44:33;;;;;;;2.90;1.20;;;11.60;99.90;;;;;;4986273;28;20477;-76
2023/09/23 04:47:19;;;;;;;3.47;1.43;;;11.60;99.90;;;;;;4984798;28;20449;-76
2023/09/23 04:50:07;;;;;;;2.33;1.30;;;11.60;99.90;;;;;;4986753;28;21000;-77
2023/09/23 04:52:53;;;;;;;3.30;1.37;;;11.50;99.90;;;;;;4981734;28;20473;-77
2023/09/23 04:55:38;;;;;;;4.63;1.10;;;11.50;99.90;;;;;;4980336;28;20442;-77
2023/09/23 04:58:24;;;;;;;4.80;1.40;;;11.50;99.90;;;;;;4984657;28;20446;-77
2023/09/23 05:01:15;;;;;;;2.50;1.80;;;11.50;99.90;;;;;;4982212;28;20535;-76
2023/09/23 05:04:02;;;;;;;3.97;1.50;;;11.40;99.90;;;;;;4978273;28;21007;-77
2023/09/23 05:06:47;;;;;;;3.90;1.70;;;11.50;99.90;;;;;;4987096;28;20484;-77
2023/09/23 05:09:34;;;;;;;6.30;1.53;;;11.60;99.90;;;;;;4980433;28;20449;-77
2023/09/23 05:12:20;;;;;;;2.30;1.50;;;11.70;99.90;;;;;;4985473;28;20477;-77
2023/09/23 05:15:09;;;;;;;3.47;1.90;;;11.70;99.90;;;;;;4979601;28;20500;-77
2023/09/23 05:17:57;;;;;;;3.30;1.30;;;11.70;99.90;;;;;;4982499;28;20821;-77
2023/09/23 05:20:43;;;;;;;4.80;1.10;;;11.80;99.90;;;;;;4985340;28;20786;-77
2023/09/23 05:23:28;;;;;;;2.27;1.10;;;11.90;99.90;;;;;;4976588;28;20498;-77
2023/09/23 05:26:16;;;;;;;2.70;1.20;;;11.90;99.90;;;;;;4979927;28;20435;-76
2023/09/23 05:29:02;;;;;;;2.40;1.50;;;11.80;99.90;;;;;;4979310;28;20523;-77
2023/09/23 05:31:48;;;;;;;3.97;1.30;;;11.80;99.90;;;;;;4980175;28;20474;-75
2023/09/23 05:34:35;;;;;;;3.73;1.63;;;11.80;99.90;;;;;;4975524;28;20474;-77
2023/09/23 05:37:20;;;;;;;4.50;1.97;;;11.90;99.90;;;;;;4979227;28;20432;-77
2023/09/23 05:40:10;;;;;;;1.87;1.20;;;11.80;99.90;;;;;;4982559;28;20541;-76
2023/09/23 05:42:56;;;;;;;4.60;1.40;;;11.80;99.90;;;;;;4979560;28;20433;-77
2023/09/23 05:45:42;;;;;;;3.17;1.13;;;11.80;99.90;;;;;;4984959;28;20503;-77
2023/09/23 05:48:27;;;;;;;1.80;1.20;;;11.90;99.90;;;;;;4982837;28;20418;-77
2023/09/23 05:51:15;;;;;;;4.33;1.50;;;11.90;99.90;;;;;;4978569;28;20459;-76
2023/09/23 05:54:01;;;;;;;4.40;1.50;;;12.00;99.90;;;;;;4977513;28;20554;-77
2023/09/23 05:56:46;;;;;;;11.13;1.43;;;12.00;99.90;;;;;;4982256;28;20453;-77
2023/09/23 05:59:32;;;;;;;9.93;1.47;;;12.10;99.90;;;;;;4982670;28;20481;-77
2023/09/23 06:02:18;;;;;;;3.80;1.30;;;12.20;99.90;;;;;;4980505;28;20860;-77
2023/09/23 06:05:03;;;;;;;2.40;1.27;;;12.30;99.90;;;;;;4979790;28;20629;-77
2023/09/23 06:07:52;;;;;;;2.50;1.40;;;12.40;99.90;;;;;;4979755;28;20429;-77
2023/09/23 06:10:38;;;;;;;5.27;1.30;;;12.30;99.90;;;;;;4977290;28;20522;-77
2023/09/23 06:13:24;;;;;;;2.70;1.63;;;12.50;99.90;;;;;;4981950;28;20523;-77
2023/09/23 06:16:09;;;;;;;2.60;1.30;;;12.50;99.90;;;;;;4976308;28;20501;-77
2023/09/23 06:18:55;;;;;;;2.97;1.67;;;12.70;99.90;;;;;;4979501;28;20849;-76
2023/09/23 06:21:41;;;;;;;3.80;1.70;;;12.70;99.90;;;;;;4982145;28;20448;-77
2023/09/23 06:24:28;;;;;;;4.43;1.37;;;12.80;99.90;;;;;;4979773;28;20472;-76
2023/09/23 06:27:13;;;;;;;2.60;1.40;;;12.80;99.90;;;;;;4979166;28;20466;-77
2023/09/23 06:29:59;;;;;;;4.47;1.53;;;12.90;99.90;;;;;;4981032;28;20412;-77
2023/09/23 06:32:47;;;;;;;2.10;1.30;;;12.80;99.90;;;;;;4981907;28;21002;-77
2023/09/23 06:35:34;;;;;;;3.83;1.57;;;12.80;99.90;;;;;;4987269;28;20566;-77
2023/09/23 06:38:19;;;;;;;3.87;1.60;;;12.80;99.90;;;;;;4979602;28;20972;-76
2023/09/23 06:41:07;;;;;;;4.23;1.80;;;12.70;99.90;;;;;;4976844;28;20441;-77
2023/09/23 06:43:53;;;;;;;3.57;1.60;;;12.70;99.90;;;;;;4979959;28;20492;-77
2023/09/23 06:46:38;;;;;;;3.50;1.00;;;12.70;99.90;;;;;;4976016;28;20557;-76
2023/09/23 06:49:24;;;;;;;2.13;1.20;;;12.80;99.90;;;;;;4979953;28;20476;-77
2023/09/23 06:52:10;;;;;;;2.40;1.20;;;12.90;99.90;;;;;;4983030;28;20538;-76
2023/09/23 06:54:55;;;;;;;3.40;1.30;;;13.00;99.90;;;;;;4982263;28;20474;-77
2023/09/23 06:57:42;;;;;;;2.63;1.13;;;13.10;99.90;;;;;;4984041;28;20992;-77
2023/09/23 07:00:28;;;;;;;3.07;1.70;;;13.20;99.90;;;;;;4983747;28;20480;-77
2023/09/23 07:03:13;;;;;;;3.07;1.30;;;13.20;99.90;;;;;;4981225;28;20449;-78
2023/09/23 07:05:59;;;;;;;2.47;1.30;;;13.30;99.90;;;;;;4984354;28;20446;-77
2023/09/23 07:08:45;;;;;;;6.77;1.70;;;13.20;99.90;;;;;;4980201;28;20961;-77
2023/09/23 07:11:30;;;;;;;5.73;1.40;;;13.30;99.90;;;;;;4975570;28;20459;-77
2023/09/23 07:14:18;;;;;;;2.30;1.20;;;13.30;99.90;;;;;;4980046;28;20794;-77
2023/09/23 07:17:04;;;;;;;4.57;1.73;;;13.30;99.90;;;;;;4981923;28;20441;-77
2023/09/23 07:19:49;;;;;;;2.57;1.40;;;13.40;99.90;;;;;;4981691;28;20475;-77
2023/09/23 07:22:35;;;;;;;3.03;1.50;;;13.40;99.90;;;;;;4981377;28;20442;-77
2023/09/23 07:25:21;;;;;;;2.70;1.70;;;13.50;99.90;;;;;;4978248;28;20793;-77
2023/09/23 07:28:07;;;;;;;2.77;1.70;;;13.60;99.90;;;;;;4984995;28;21033;-78
2023/09/23 07:30:54;;;;;;;2.80;1.43;;;13.60;99.90;;;;;;4979561;28;20580;-78
2023/09/23 07:33:40;;;;;;;4.30;1.30;;;13.60;99.90;;;;;;4984750;28;21005;-77
2023/09/23 07:36:25;;;;;;;5.63;1.47;;;13.80;99.90;;;;;;4982975;28;20965;-77
2023/09/23 07:39:11;;;;;;;2.30;1.10;;;14.00;99.90;;;;;;4978366;28;20976;-77
2023/09/23 07:41:57;;;;;;;3.30;1.30;;;14.00;99.90;;;;;;4976994;28;20447;-77
2023/09/23 07:44:42;;;;;;;4.80;1.60;;;14.10;99.90;;;;;;4977365;28;20465;-77
2023/09/23 07:47:30;;;;;;;6.03;1.50;;;14.10;99.90;;;;;;4977239;28;20424;-78
2023/09/23 07:50:16;;;;;;;5.60;1.40;;;14.20;99.90;;;;;;4981692;28;20418;-76
2023/09/23 07:53:02;;;;;;;4.50;1.20;;;14.10;99.90;;;;;;4982733;28;20451;-77
2023/09/23 07:55:48;;;;;;;6.33;1.10;;;14.10;99.90;;;;;;4986252;28;20571;-77
2023/09/23 07:58:33;;;;;;;3.10;1.10;;;14.20;99.90;;;;;;4984988;28;20467;-77
2023/09/23 08:01:20;;;;;;;5.13;1.50;;;14.10;99.90;;;;;;4980465;28;20472;-77
2023/09/23 08:04:07;;;;;;;2.97;1.10;;;14.20;99.90;;;;;;4978653;28;20441;-76
2023/09/23 08:06:52;;;;;;;6.93;1.70;;;14.20;99.90;;;;;;4979127;28;20454;-77
2023/09/23 08:09:38;;;;;;;3.47;1.20;;;14.10;99.90;;;;;;4986572;28;20529;-77
2023/09/23 08:12:24;;;;;;;3.73;1.50;;;14.10;99.90;;;;;;4982042;28;20469;-78
2023/09/23 08:15:11;;;;;;;4.20;1.33;;;14.20;99.90;;;;;;4984225;28;20436;-77
2023/09/23 08:17:57;;;;;;;3.90;1.33;;;14.30;99.90;;;;;;4981374;28;21002;-77
2023/09/23 08:20:44;;;;;;;4.20;1.40;;;14.40;99.90;;;;;;4981230;28;20515;-77
2023/09/23 08:23:29;;;;;;;2.83;1.30;;;14.50;99.90;;;;;;5002377;22;20440;-71
2023/09/23 08:26:15;;;;;;;2.10;1.10;;;14.50;99.90;;;;;;4999471;28;20449;-72
2023/09/23 08:29:01;;;;;;;2.30;1.20;;;14.70;99.90;;;;;;4997773;28;20490;-72
2023/09/23 08:31:46;;;;;;;4.77;1.53;;;14.80;99.90;;;;;;4997335;28;20970;-72
2023/09/23 08:34:32;;;;;;;2.90;1.20;;;14.90;99.90;;;;;;5002128;28;20456;-72
2023/09/23 08:37:20;;;;;;;5.53;1.30;;;15.00;99.90;;;;;;4996461;28;20457;-72
2023/09/23 08:40:10;;;;;;;5.03;1.20;;;15.10;99.90;;;;;;5000313;28;20556;-72
2023/09/23 08:43:01;;;;;;;3.60;1.43;;;15.10;99.90;;;;;;4999920;28;20428;-72
2023/09/23 08:45:47;;;;;;;2.40;1.30;;;15.30;99.90;;;;;;4999559;28;20904;-72
2023/09/23 08:48:34;;;;;;;3.93;1.63;;;15.40;99.90;;;;;;5003618;28;20427;-72
2023/09/23 08:51:22;;;;;;;2.53;1.20;;;15.60;99.90;;;;;;5002242;28;20420;-72
2023/09/23 08:54:12;;;;;;;3.77;1.40;;;15.70;99.90;;;;;;5001267;28;20449;-72
2023/09/23 08:56:58;;;;;;;10.33;1.70;;;15.80;99.90;;;;;;4998203;28;20649;-72
2023/09/23 08:59:44;;;;;;;6.37;1.27;;;15.70;99.90;;;;;;5002607;28;20473;-72
2023/09/23 09:02:30;;;;;;;2.27;1.07;;;15.90;99.90;;;;;;5001381;28;20453;-72
2023/09/23 09:05:16;;;;;;;7.37;1.43;;;16.00;99.90;;;;;;4996341;28;20492;-72
2023/09/23 09:08:01;;;;;;;2.73;1.40;;;15.90;99.90;;;;;;5003471;28;20416;-72
2023/09/23 09:10:48;;;;;;;3.53;1.27;;;16.00;99.90;;;;;;5001516;28;20439;-72
2023/09/23 09:13:35;;;;;;;2.57;1.17;;;16.00;99.90;;;;;;5001096;28;20432;-72
2023/09/23 09:16:21;;;;;;;5.90;1.97;;;16.20;99.90;;;;;;5002337;28;20453;-72
2023/09/23 09:19:06;;;;;;;4.37;1.00;;;16.00;99.90;;;;;;4997688;28;20445;-72
2023/09/23 09:21:53;;;;;;;3.17;1.07;;;16.10;99.90;;;;;;4999858;28;20473;-72
2023/09/23 09:24:38;;;;;;;3.70;1.13;;;16.20;99.90;;;;;;5002882;28;20482;-72
2023/09/23 09:27:25;;;;;;;6.23;1.43;;;16.30;99.90;;;;;;4996039;28;20421;-72
2023/09/23 09:30:12;;;;;;;5.57;1.67;;;16.40;99.90;;;;;;4994246;28;20421;-72
2023/09/23 09:33:01;;;;;;;3.83;1.00;;;16.50;99.90;;;;;;4996325;28;20460;-72
2023/09/23 09:35:48;;;;;;;9.03;1.93;;;16.70;99.90;;;;;;4997875;28;20875;-72
2023/09/23 09:38:34;;;;;;;5.67;1.40;;;16.70;99.90;;;;;;5000753;28;20449;-72
2023/09/23 09:41:25;;;;;;;7.57;1.33;;;16.80;99.90;;;;;;4995644;28;20478;-72
2023/09/23 09:44:14;;;;;;;3.23;1.50;;;16.80;99.90;;;;;;4996365;28;20500;-72
2023/09/23 09:47:00;;;;;;;8.10;1.70;;;16.80;99.90;;;;;;4997281;28;20573;-72
2023/09/23 09:49:46;;;;;;;2.67;1.20;;;16.80;99.90;;;;;;4998886;28;20453;-72
2023/09/23 09:52:35;;;;;;;5.07;1.50;;;16.70;99.90;;;;;;4997417;28;20421;-72
2023/09/23 09:55:24;;;;;;;5.67;1.30;;;16.60;99.90;;;;;;5001117;28;20449;-72
2023/09/23 09:58:10;;;;;;;3.23;1.20;;;16.50;99.90;;;;;;4996013;28;20442;-72
2023/09/23 10:00:57;;;;;;;4.00;1.37;;;16.60;99.90;;;;;;4998166;28;20993;-72
2023/09/23 10:03:44;;;;;;;4.57;1.40;;;16.50;99.90;;;;;;4995545;28;20584;-72
2023/09/23 10:06:40;;;;;;;3.40;1.20;;;16.60;99.90;;;;;;4994302;28;20791;-72
2023/09/23 10:09:30;;;;;;;4.97;1.30;;;16.70;99.90;;;;;;4999801;28;20428;-72
2023/09/23 10:12:19;;;;;;;6.17;1.50;;;16.80;99.90;;;;;;4993744;28;21059;-72
2023/09/23 10:15:07;;;;;;;2.20;1.20;;;16.90;99.90;;;;;;4998213;28;20505;-72
2023/09/23 10:17:57;;;;;;;5.13;1.87;;;16.80;99.90;;;;;;4999134;28;20438;-72
2023/09/23 10:20:46;;;;;;;12.33;1.50;;;16.80;99.90;;;;;;4995555;28;20481;-72
2023/09/23 10:23:35;;;;;;;3.40;1.20;;;16.50;99.90;;;;;;4996588;28;20523;-72
2023/09/23 10:26:23;;;;;;;7.50;1.60;;;16.50;99.90;;;;;;5004991;28;20423;-71
2023/09/23 10:29:08;;;;;;;5.63;1.70;;;16.40;99.90;;;;;;4993941;28;20450;-71
2023/09/23 10:31:54;;;;;;;3.97;1.80;;;16.30;99.90;;;;;;4992635;28;20417;-71
2023/09/23 10:34:48;;;;;;;6.17;1.30;;;16.40;99.90;;;;;;4998067;28;20581;-71
2023/09/23 10:37:35;;;;;;;5.73;1.50;;;16.30;99.90;;;;;;5002959;28;20956;-71
2023/09/23 10:40:21;;;;;;;3.43;1.30;;;16.40;99.90;;;;;;4994311;28;20479;-71
2023/09/23 10:43:08;;;;;;;3.47;1.50;;;16.50;99.90;;;;;;4996073;28;20450;-71
2023/09/23 10:45:54;;;;;;;6.77;1.83;;;16.60;99.90;;;;;;5000090;28;20942;-71
2023/09/23 10:48:40;;;;;;;7.40;1.43;;;16.70;99.90;;;;;;4994886;28;20472;-71
2023/09/23 10:51:28;;;;;;;4.23;1.10;;;16.80;99.90;;;;;;4997671;28;20432;-71
2023/09/23 10:54:14;;;;;;;2.30;1.20;;;17.00;99.90;;;;;;4992404;28;20449;-71
2023/09/23 10:57:00;;;;;;;4.83;1.33;;;16.80;99.90;;;;;;4999383;28;20585;-71
2023/09/23 10:59:45;;;;;;;3.33;1.20;;;16.80;99.90;;;;;;5003012;28;20562;-72
2023/09/23 11:02:32;;;;;;;2.50;1.17;;;16.70;99.90;;;;;;4991986;28;20460;-71
2023/09/23 11:05:18;;;;;;;3.97;1.00;;;16.80;99.90;;;;;;4997211;28;20494;-70
2023/09/23 11:08:06;;;;;;;3.60;1.63;;;16.60;99.90;;;;;;4997715;28;20444;-71
2023/09/23 11:10:52;;;;;;;5.83;1.40;;;16.60;99.90;;;;;;4990898;28;20500;-71
2023/09/23 11:13:37;;;;;;;4.40;1.47;;;16.60;99.90;;;;;;5000412;28;20417;-73
2023/09/23 11:16:23;;;;;;;4.60;1.60;;;16.60;99.90;;;;;;4991187;28;20537;-73
2023/09/23 11:19:09;;;;;;;2.37;1.20;;;16.60;99.90;;;;;;4989183;28;20790;-73
2023/09/23 11:21:54;;;;;;;4.70;1.30;;;16.50;99.90;;;;;;4995327;28;21171;-73
2023/09/23 11:24:41;;;;;;;4.43;1.60;;;16.50;99.90;;;;;;5001469;28;20574;-73
2023/09/23 11:27:28;;;;;;;2.60;1.00;;;16.60;99.90;;;;;;5003504;28;20432;-73
2023/09/23 11:30:14;;;;;;;2.47;1.00;;;16.70;99.90;;;;;;4999283;28;20424;-73
2023/09/23 11:33:00;;;;;;;6.73;1.67;;;16.70;99.90;;;;;;4996702;28;20480;-73
2023/09/23 11:35:46;;;;;;;2.10;1.00;;;16.60;99.90;;;;;;4994533;28;20957;-73
2023/09/23 11:38:32;;;;;;;2.67;1.33;;;16.70;99.90;;;;;;4997522;28;20547;-73
2023/09/23 11:41:19;;;;;;;6.60;1.40;;;16.70;99.90;;;;;;5001673;28;20443;-73
2023/09/23 11:44:05;;;;;;;5.47;1.37;;;16.90;99.90;;;;;;4996248;28;20546;-73
2023/09/23 11:46:50;;;;;;;5.07;1.70;;;16.90;99.90;;;;;;5000716;28;20448;-73
2023/09/23 11:49:36;;;;;;;3.57;1.37;;;17.10;99.90;;;;;;4994024;28;20433;-73
2023/09/23 11:52:22;;;;;;;3.27;1.10;;;17.30;99.90;;;;;;4999624;28;20403;-73
2023/09/23 11:55:09;;;;;;;5.40;1.50;;;17.60;99.90;;;;;;4993921;28;20586;-73
2023/09/23 11:57:57;;;;;;;5.07;1.00;;;17.90;99.90;;;;;;4996969;28;20417;-73
2023/09/23 12:00:43;;;;;;;2.90;1.00;;;18.10;99.90;;;;;;5000359;28;20453;-73
2023/09/23 12:03:29;;;;;;;3.60;1.83;;;18.40;99.90;;;;;;4997346;28;20911;-73
2023/09/23 12:06:15;;;;;;;2.53;1.10;;;18.70;97.50;;;;;;4996061;28;20406;-73
2023/09/23 12:09:01;;;;;;;3.93;1.13;;;18.80;92.90;;;;;;5000246;28;20399;-71
2023/09/23 12:11:48;;;;;;;9.57;1.70;;;18.80;89.40;;;;;;4996256;28;20394;-72
2023/09/23 12:14:36;;;;;;;3.87;1.37;;;18.60;75.00;;;;;;5001365;28;20447;-72
2023/09/23 12:17:21;;;;;;;2.83;1.10;;;18.40;80.30;;;;;;5000116;28;20410;-72
2023/09/23 12:20:11;;;;;;;4.53;1.40;;;18.40;83.80;;;;;;4999545;28;20817;-72
2023/09/23 12:22:57;;;;;;;4.53;1.60;;;18.40;90.70;;;;;;4997777;28;20449;-72
2023/09/23 12:25:43;;;;;;;5.13;1.33;;;18.20;79.30;;;;;;4996748;28;20606;-72
2023/09/23 12:28:30;;;;;;;3.33;1.07;;;18.20;88.40;;;;;;4996780;28;20569;-72
2023/09/23 12:31:17;;;;;;;3.40;1.20;;;18.30;77.00;;;;;;4998739;28;20422;-72
2023/09/23 12:34:03;;;;;;;2.00;0.93;;;18.40;71.00;;;;;;4998469;28;21085;-72
2023/09/23 12:36:49;;;;;;;4.07;1.10;;;18.30;64.40;;;;;;5002351;28;20502;-72
2023/09/23 12:39:35;;;;;;;2.63;0.90;;;18.40;71.80;;;;;;4999727;28;20447;-72
2023/09/23 12:42:21;;;;;;;4.13;0.90;;;18.50;67.50;;;;;;5008574;28;20539;-72
2023/09/23 12:45:07;;;;;;;3.80;1.30;;;18.60;68.40;;;;;;5002388;28;20468;-72
2023/09/23 12:47:55;;;;;;;3.30;0.80;;;18.60;69.30;;;;;;5004360;28;20450;-72
2023/09/23 12:50:40;;;;;;;3.00;0.93;;;18.40;61.40;;;;;;5006895;28;20470;-72
2023/09/23 12:53:26;;;;;;;3.70;1.00;;;18.20;62.30;;;;;;5005415;28;20422;-72
2023/09/23 12:56:13;;;;;;;2.87;1.07;;;18.20;61.00;;;;;;5002332;28;20454;-72
2023/09/23 12:58:59;;;;;;;5.40;1.07;;;18.10;63.40;;;;;;4999223;28;20578;-72
2023/09/23 13:01:45;;;;;;;4.97;1.70;;;18.00;63.30;;;;;;5007252;28;21024;-72
2023/09/23 13:04:32;;;;;;;12.87;1.50;;;18.00;63.20;;;;;;5005324;28;20464;-72
2023/09/23 13:07:18;;;;;;;2.13;0.93;;;18.30;67.40;;;;;;4998717;28;20977;-72
2023/09/23 13:10:04;;;;;;;2.90;0.90;;;18.60;63.80;;;;;;5000800;28;20447;-72
2023/09/23 13:12:51;;;;;;;6.73;1.27;;;18.80;63.30;;;;;;5001510;28;20450;-72
2023/09/23 13:15:37;;;;;;;3.20;0.90;;;18.90;53.20;;;;;;5000502;28;20487;-72
2023/09/23 13:18:23;;;;;;;1.90;0.80;;;19.30;62.90;;;;;;5001752;28;20430;-72
2023/09/23 13:21:10;;;;;;;6.10;1.20;;;19.50;48.30;;;;;;5000066;28;20519;-72
2023/09/23 13:23:56;;;;;;;2.60;1.10;;;19.50;53.10;;;;;;5001756;28;20561;-72
2023/09/23 13:26:43;;;;;;;2.60;0.90;;;19.30;46.40;;;;;;4998998;28;20550;-72
2023/09/23 13:29:28;;;;;;;1.67;0.70;;;19.00;47.40;;;;;;4993914;28;20430;-72
2023/09/23 13:32:16;;;;;;;2.30;1.00;;;18.90;54.30;;;;;;4994886;28;20453;-72
2023/09/23 13:35:01;;;;;;;3.17;1.13;;;19.00;61.50;;;;;;5001767;28;21049;-72
2023/09/23 13:37:48;;;;;;;3.60;1.17;;;18.90;64.00;;;;;;4998305;28;20527;-72
2023/09/23 13:40:35;;;;;;;5.07;1.37;;;18.70;51.90;;;;;;4994367;28;20589;-72
2023/09/23 13:43:21;;;;;;;5.37;1.47;;;18.50;56.70;;;;;;5000471;28;20463;-72
2023/09/23 13:46:06;;;;;;;2.73;1.03;;;18.40;57.70;;;;;;4998714;28;20836;-72
2023/09/23 13:48:52;;;;;;;3.73;1.10;;;18.40;59.70;;;;;;4998674;28;20447;-72
2023/09/23 13:51:38;;;;;;;6.23;1.37;;;18.30;60.80;;;;;;4999642;28;20527;-72
2023/09/23 13:54:25;;;;;;;3.23;1.13;;;18.30;59.60;;;;;;4997790;28;20449;-72
2023/09/23 13:57:10;;;;;;;2.90;1.23;;;18.40;56.90;;;;;;4996029;28;20470;-72
2023/09/23 13:59:56;;;;;;;6.83;1.03;;;18.50;59.50;;;;;;4994796;28;20992;-72
2023/09/23 14:02:42;;;;;;;4.87;1.50;;;18.50;63.70;;;;;;4998830;28;20966;-72
2023/09/23 14:05:28;;;;;;;6.10;1.33;;;18.50;61.80;;;;;;4997967;28;20437;-72
2023/09/23 14:08:14;;;;;;;5.80;1.27;;;18.40;63.60;;;;;;4996737;28;20439;-72
2023/09/23 14:11:04;;;;;;;4.90;0.90;;;18.40;61.00;;;;;;5002381;28;20462;-72
2023/09/23 14:13:50;;;;;;;6.83;1.33;;;18.40;64.40;;;;;;4998789;28;20502;-73
2023/09/23 14:16:36;;;;;;;2.20;1.00;;;18.40;59.80;;;;;;4998682;28;20927;-73
2023/09/23 14:19:21;;;;;;;4.13;1.20;;;18.30;48.60;;;;;;4998469;28;20434;-74
2023/09/23 14:22:07;;;;;;;4.10;1.83;;;18.30;48.90;;;;;;4992594;28;20551;-73
2023/09/23 14:24:53;;;;;;;3.53;1.20;;;18.00;47.30;;;;;;5021733;23;20582;-78